Time;durP1;ratioP1;P1;durP2;ratioP2;P2;SDS_P1;SDS_P2;PMS_P1;PMS_P2;Temp;Humidity;BMP_temperature;BMP_pressure;BME280_temperature;BME280_humidity;BME280_pressure;Samples;Min_cycle;Max_cycle;Signal;HPM_P1;HPM_P2
2022/09/16 00:02:23;;;;;;;7.17;1.43;;;;;;;9.31;85.74;97821.30;1761571;81;21024;-59
2022/09/16 00:04:52;;;;;;;5.30;1.17;;;;;;;9.26;85.70;97814.75;1766655;80;20955;-59
2022/09/16 00:07:19;;;;;;;4.90;1.20;;;;;;;9.21;85.80;97815.55;1762941;80;21019;-59
2022/09/16 00:09:46;;;;;;;4.90;1.40;;;;;;;9.15;85.84;97820.25;1773053;79;21486;-59
2022/09/16 00:12:13;;;;;;;5.58;1.27;;;;;;;9.11;85.91;97827.94;1756130;80;21365;-59
2022/09/16 00:14:40;;;;;;;10.07;1.53;;;;;;;9.06;85.94;97822.70;1773145;79;20954;-59
2022/09/16 00:17:06;;;;;;;7.80;1.35;;;;;;;9.02;86.00;97827.30;1743450;81;21584;-59
2022/09/16 00:19:33;;;;;;;2.85;0.95;;;;;;;8.99;86.21;97824.06;1750259;80;21001;-59
2022/09/16 00:22:00;;;;;;;3.47;1.00;;;;;;;8.95;86.18;97835.17;1762726;80;21882;-59
2022/09/16 00:24:27;;;;;;;5.42;1.00;;;;;;;8.99;86.37;97831.42;1750138;81;20902;-59
2022/09/16 00:26:54;;;;;;;4.47;1.20;;;;;;;9.03;86.42;97826.34;1759090;79;21037;-59
2022/09/16 00:29:21;;;;;;;4.20;1.07;;;;;;;9.07;86.41;97832.98;1743007;81;21077;-59
2022/09/16 00:31:47;;;;;;;7.57;1.43;;;;;;;9.09;86.30;97831.11;1763189;80;21657;-59
2022/09/16 00:34:14;;;;;;;4.65;1.27;;;;;;;9.12;86.24;97830.89;1752820;81;21608;-59
2022/09/16 00:36:41;;;;;;;5.85;1.32;;;;;;;9.13;86.26;97835.17;1770151;80;21002;-59
2022/09/16 00:39:08;;;;;;;3.40;1.30;;;;;;;9.11;86.20;97821.43;1763920;80;21027;-59
2022/09/16 00:41:36;;;;;;;6.77;1.20;;;;;;;9.05;86.14;97818.44;1763607;80;20948;-59
2022/09/16 00:44:07;;;;;;;7.55;1.17;;;;;;;9.07;86.17;97819.97;1765190;80;21029;-60
2022/09/16 00:46:43;;;;;;;3.45;1.02;;;;;;;8.98;86.20;97820.63;1763016;80;21867;-60
2022/09/16 00:49:14;;;;;;;7.58;1.77;;;;;;;8.91;86.18;97822.02;1764406;80;20955;-60
2022/09/16 00:51:46;;;;;;;4.55;1.25;;;;;;;8.81;86.36;97817.09;1763670;80;21003;-59
2022/09/16 00:54:15;;;;;;;6.67;1.60;;;;;;;8.72;86.42;97810.30;1763957;80;21374;-59
2022/09/16 00:56:46;;;;;;;3.47;1.07;;;;;;;8.71;86.36;97808.64;1755831;80;20971;-59
2022/09/16 00:59:32;;;;;;;6.25;1.10;;;;;;;8.64;86.33;97810.00;1765245;80;21088;-59
2022/09/16 01:02:03;;;;;;;2.75;1.25;;;;;;;8.58;86.34;97815.63;1762201;80;21006;-60
2022/09/16 01:04:35;;;;;;;7.20;1.50;;;;;;;8.50;86.46;97813.55;1762881;80;20965;-60
2022/09/16 01:07:03;;;;;;;6.75;1.72;;;;;;;8.47;86.48;97817.67;1765370;80;21515;-60
2022/09/16 01:09:31;;;;;;;6.20;1.22;;;;;;;8.49;86.54;97801.97;1767832;80;20990;-60
2022/09/16 01:11:57;;;;;;;7.25;1.92;;;;;;;8.48;86.52;97802.89;1759760;80;21765;-60
2022/09/16 01:17:32;;;;;;;4.60;1.20;;;;;;;8.46;86.68;97798.29;1768240;80;20956;-60
2022/09/16 01:20:11;;;;;;;4.80;1.30;;;;;;;8.52;86.65;97805.66;1764308;80;21088;-60
2022/09/16 01:23:16;;;;;;;5.97;1.30;;;;;;;8.53;86.72;97794.30;1762493;80;20942;-60
2022/09/16 01:26:29;;;;;;;7.92;2.00;;;;;;;8.53;86.77;97794.30;1762791;80;21797;-59
2022/09/16 01:29:39;;;;;;;9.53;1.47;;;;;;;8.50;86.67;97798.42;1779405;79;21036;-60
2022/09/16 01:32:17;;;;;;;9.48;1.72;;;;;;;8.47;86.71;97799.94;1777361;79;21625;-61
2022/09/16 01:35:03;;;;;;;3.27;1.05;;;;;;;8.48;86.74;97798.98;1777925;79;21056;-60
2022/09/16 01:37:54;;;;;;;8.55;1.37;;;;;;;8.49;87.00;97801.97;1785044;79;21092;-59
2022/09/16 01:40:50;;;;;;;8.58;1.35;;;;;;;8.53;86.94;97801.28;1779489;79;21726;-60
2022/09/16 01:43:43;;;;;;;8.65;1.22;;;;;;;8.56;86.94;97802.37;1755625;81;21541;-60
2022/09/16 01:46:34;;;;;;;6.00;1.80;;;;;;;8.58;86.99;97802.62;1754492;81;21058;-58
2022/09/16 01:49:15;;;;;;;10.35;1.52;;;;;;;8.59;87.02;97803.45;1743250;81;21077;-60
2022/09/16 01:52:03;;;;;;;4.45;1.07;;;;;;;8.60;87.16;97803.36;1746355;81;21642;-60
2022/09/16 01:54:36;;;;;;;6.47;1.62;;;;;;;8.67;87.32;97817.58;1748705;81;21201;-60
2022/09/16 01:57:19;;;;;;;5.12;1.35;;;;;;;8.69;87.28;97807.91;1726116;83;21415;-59
2022/09/16 02:00:09;;;;;;;7.25;1.47;;;;;;;8.69;87.11;97811.81;1692893;83;21537;-59
2022/09/16 02:02:54;;;;;;;7.87;1.75;;;;;;;8.67;87.08;97809.78;1707210;82;21570;-59
2022/09/16 02:05:38;;;;;;;5.70;1.47;;;;;;;8.63;87.08;97809.64;1683887;83;21624;-59
2022/09/16 02:08:12;;;;;;;7.47;1.57;;;;;;;8.58;87.10;97808.30;1719978;82;22001;-59
2022/09/16 02:10:44;;;;;;;5.87;1.35;;;;;;;8.54;87.22;97812.04;1667528;83;21104;-59
2022/09/16 02:13:22;;;;;;;4.83;1.32;;;;;;;8.52;87.26;97803.06;1725093;82;21106;-59
2022/09/16 02:15:52;;;;;;;5.58;1.17;;;;;;;8.51;87.32;97811.78;1714616;81;20966;-59
2022/09/16 02:18:30;;;;;;;7.95;2.62;;;;;;;8.54;87.46;97808.96;1716579;82;21020;-59
2022/09/16 02:20:58;;;;;;;8.85;1.52;;;;;;;8.58;87.58;97810.43;1743105;80;21083;-59
2022/09/16 02:23:32;;;;;;;4.65;1.10;;;;;;;8.58;87.65;97802.62;1753222;81;20933;-59
2022/09/16 02:26:01;;;;;;;5.60;1.57;;;;;;;8.60;87.51;97808.56;1751501;81;22328;-59
2022/09/16 02:28:33;;;;;;;6.22;2.22;;;;;;;8.58;87.39;97794.82;1730655;81;21869;-59
2022/09/16 02:31:05;;;;;;;7.10;1.72;;;;;;;8.53;87.40;97786.50;1762606;79;21132;-59
2022/09/16 02:33:36;;;;;;;5.28;1.47;;;;;;;8.50;87.42;97791.92;1755892;81;21176;-59
2022/09/16 02:36:05;;;;;;;7.25;1.25;;;;;;;8.45;87.51;97791.41;1769561;79;21046;-59
2022/09/16 02:38:41;;;;;;;9.15;1.75;;;;;;;8.40;87.61;97798.69;1778726;79;20903;-59
2022/09/16 02:41:13;;;;;;;6.97;1.57;;;;;;;8.34;87.62;97794.70;1774782;80;21538;-59
2022/09/16 02:43:37;;;;;;;7.35;1.60;;;;;;;8.34;87.73;97793.88;1756810;81;20997;-59
2022/09/16 02:46:24;;;;;;;5.62;1.52;;;;;;;8.28;87.71;97790.77;1758160;79;21037;-59
2022/09/16 02:48:56;;;;;;;4.33;1.10;;;;;;;8.25;87.68;97785.77;1772810;79;21079;-60
2022/09/16 02:51:34;;;;;;;7.45;1.72;;;;;;;8.24;87.77;97791.92;1783778;79;20902;-59
2022/09/16 02:54:12;;;;;;;8.20;1.90;;;;;;;8.21;87.77;97777.84;1705567;82;21544;-60
2022/09/16 02:56:41;;;;;;;8.10;1.75;;;;;;;8.20;87.88;97782.65;1682963;83;21136;-60
2022/09/16 02:59:11;;;;;;;6.85;1.00;;;;;;;8.17;87.96;97773.77;1693204;83;21319;-60
2022/09/16 03:01:43;;;;;;;7.65;2.42;;;;;;;8.16;87.97;97777.79;1694478;83;21006;-61
2022/09/16 03:04:13;;;;;;;4.85;1.12;;;;;;;8.15;87.88;97769.16;1697671;83;21188;-60
2022/09/16 03:06:40;;;;;;;5.37;1.37;;;;;;;8.17;87.90;97777.66;1688294;83;21096;-60
2022/09/16 03:09:13;;;;;;;3.98;0.93;;;;;;;8.15;87.79;97774.36;1700109;83;20976;-61
2022/09/16 03:12:03;;;;;;;10.40;1.87;;;;;;;8.14;87.89;97772.68;1681558;83;21956;-61
2022/09/16 03:14:51;;;;;;;6.58;1.27;;;;;;;8.14;87.87;97782.25;1702293;83;21097;-60
2022/09/16 03:18:06;;;;;;;7.67;1.20;;;;;;;8.11;87.81;97779.86;1673772;83;21015;-61
2022/09/16 03:20:41;;;;;;;9.35;1.30;;;;;;;8.08;87.95;97780.90;1696648;83;21030;-60
2022/09/16 03:23:44;;;;;;;6.45;1.32;;;;;;;8.06;87.94;97776.27;1699750;83;21073;-60
2022/09/16 03:26:25;;;;;;;5.05;1.00;;;;;;;8.04;87.98;97788.09;1690728;83;21090;-60
2022/09/16 03:29:19;;;;;;;10.13;2.55;;;;;;;8.03;87.97;97785.58;1677186;83;21148;-60
2022/09/16 03:32:10;;;;;;;6.20;1.45;;;;;;;8.02;88.07;97773.53;1714854;81;21032;-59
2022/09/16 03:34:44;;;;;;;11.28;1.47;;;;;;;8.00;88.06;97785.78;1740183;81;20992;-59
2022/09/16 03:37:16;;;;;;;8.48;1.70;;;;;;;8.01;88.24;97784.84;1745158;81;21115;-59
2022/09/16 03:39:49;;;;;;;7.22;1.35;;;;;;;8.02;88.28;97791.72;1756878;80;21962;-59
2022/09/16 03:42:17;;;;;;;6.70;1.60;;;;;;;8.05;88.34;97792.81;1740592;81;21599;-59
2022/09/16 03:44:45;;;;;;;6.60;1.00;;;;;;;8.08;88.39;97793.90;1753189;80;21026;-60
2022/09/16 03:47:12;;;;;;;8.78;1.67;;;;;;;8.13;88.47;97809.20;1731505;81;20989;-59
2022/09/16 03:49:42;;;;;;;8.63;1.47;;;;;;;8.21;88.61;97807.73;1758692;80;21023;-59
2022/09/16 03:52:09;;;;;;;6.50;1.62;;;;;;;8.32;88.73;97808.75;1763922;79;21882;-59
2022/09/16 03:54:37;;;;;;;8.38;1.80;;;;;;;8.42;88.71;97809.83;1766000;79;20991;-60
2022/09/16 03:57:04;;;;;;;7.72;1.50;;;;;;;8.49;88.68;97822.78;1765082;80;20973;-60
2022/09/16 03:59:31;;;;;;;;;;;;;;;8.57;88.61;97828.29;1765885;80;21554;-60
2022/09/16 04:01:58;;;;;;;5.30;1.20;;;;;;;8.60;88.58;97821.56;1760470;79;20115;-59
2022/09/16 04:04:25;;;;;;;6.47;1.45;;;;;;;8.64;88.64;97825.61;1759402;80;21189;-59
2022/09/16 04:06:52;;;;;;;4.12;1.00;;;;;;;8.64;88.72;97828.20;1762920;80;20986;-59
2022/09/16 04:09:19;;;;;;;5.00;1.40;;;;;;;8.68;88.62;97823.61;1767326;80;22159;-59
2022/09/16 04:11:46;;;;;;;7.78;1.17;;;;;;;8.68;88.57;97814.06;1761021;80;21073;-59
2022/09/16 04:14:13;;;;;;;5.13;0.97;;;;;;;8.70;88.48;97814.77;1734760;81;20993;-59
2022/09/16 04:16:40;;;;;;;7.92;1.55;;;;;;;8.69;88.56;97812.28;1741834;81;22064;-60
2022/09/16 04:19:07;;;;;;;6.08;0.90;;;;;;;8.67;88.61;97812.86;1763020;79;20922;-59
2022/09/16 04:21:33;;;;;;;6.77;1.77;;;;;;;8.65;88.67;97801.23;1758938;80;20978;-60
2022/09/16 04:24:01;;;;;;;4.80;1.37;;;;;;;8.65;88.70;97806.45;1745266;81;20988;-59
2022/09/16 04:26:27;;;;;;;5.62;1.80;;;;;;;8.66;88.73;97808.60;1757352;80;21186;-59
2022/09/16 04:28:54;;;;;;;5.85;1.25;;;;;;;8.65;88.93;97798.64;1779374;79;21217;-60
2022/09/16 04:31:21;;;;;;;8.50;2.00;;;;;;;8.65;88.90;97809.52;1751197;79;21459;-59
2022/09/16 04:33:49;;;;;;;3.37;0.88;;;;;;;8.66;88.82;97792.52;1763017;81;21489;-59
2022/09/16 04:36:18;;;;;;;;;;;;;;;8.65;88.88;97777.83;1765781;79;20993;-59
2022/09/16 04:38:47;;;;;;;5.20;0.82;;;;;;;8.67;88.78;97785.53;1769819;79;20157;-60
2022/09/16 04:41:24;;;;;;;5.10;1.02;;;;;;;8.66;88.79;97791.22;1769084;79;21051;-60
2022/09/16 04:43:59;;;;;;;2.33;0.80;;;;;;;8.66;88.73;97789.91;1779516;79;21512;-60
2022/09/16 04:46:26;;;;;;;3.22;0.98;;;;;;;8.64;88.66;97787.05;1769459;79;21014;-60
2022/09/16 04:48:55;;;;;;;4.00;0.62;;;;;;;8.56;88.81;97782.86;1774813;79;20999;-59
2022/09/16 04:51:24;;;;;;;4.47;0.88;;;;;;;8.52;88.79;97787.45;1773893;79;20894;-59
2022/09/16 04:53:51;;;;;;;2.37;0.70;;;;;;;8.46;88.60;97793.09;1773239;79;21860;-59
2022/09/16 04:56:22;;;;;;;3.35;1.02;;;;;;;8.41;88.67;97802.97;1774567;79;21721;-60
2022/09/16 04:58:52;;;;;;;2.37;1.32;;;;;;;8.37;88.71;97798.87;1770810;79;20959;-59
2022/09/16 05:01:25;;;;;;;2.10;0.62;;;;;;;8.38;88.83;97808.35;1775747;79;21096;-59
2022/09/16 05:03:56;;;;;;;4.17;0.65;;;;;;;8.40;88.93;97807.78;1781203;79;20991;-60
2022/09/16 05:06:27;;;;;;;2.72;0.60;;;;;;;8.46;89.01;97798.29;1768347;79;21892;-59
2022/09/16 05:08:56;;;;;;;2.45;0.85;;;;;;;8.56;89.14;97801.89;1770499;79;20987;-60
2022/09/16 05:11:27;;;;;;;5.80;1.05;;;;;;;8.66;89.01;97805.52;1778151;79;21554;-60
2022/09/16 05:14:03;;;;;;;3.92;0.72;;;;;;;8.70;89.04;97801.75;1775679;79;20929;-60
2022/09/16 05:16:31;;;;;;;4.67;1.10;;;;;;;8.70;89.04;97806.96;1765114;80;22253;-59
2022/09/16 05:19:02;;;;;;;2.98;0.70;;;;;;;8.72;89.14;97806.39;1765966;81;21190;-59
2022/09/16 05:21:31;;;;;;;2.52;0.70;;;;;;;8.77;89.26;97796.15;1763721;79;22334;-59
2022/09/16 05:24:06;;;;;;;4.12;1.12;;;;;;;8.82;89.28;97797.92;1755908;79;20978;-59
2022/09/16 05:26:34;;;;;;;8.15;1.65;;;;;;;8.83;89.38;97798.31;1772099;79;20971;-60
2022/09/16 05:29:04;;;;;;;7.60;1.42;;;;;;;8.84;89.35;97794.76;1745120;81;20891;-59
2022/09/16 05:31:35;;;;;;;7.00;1.27;;;;;;;8.84;89.30;97793.45;1775954;79;21568;-60
2022/09/16 05:34:14;;;;;;;7.28;1.42;;;;;;;8.88;89.41;97786.63;1749488;81;20942;-59
2022/09/16 05:36:43;;;;;;;4.78;1.25;;;;;;;8.93;89.35;97795.39;1766629;79;21040;-60
2022/09/16 05:39:11;;;;;;;5.15;1.42;;;;;;;8.98;89.39;97802.41;1761016;81;20929;-60
2022/09/16 05:41:39;;;;;;;7.78;1.30;;;;;;;9.05;89.42;97795.84;1770036;80;21037;-59
2022/09/16 05:44:06;;;;;;;7.12;1.87;;;;;;;9.08;89.29;97796.09;1757429;79;21158;-60
2022/09/16 05:46:33;;;;;;;4.33;1.45;;;;;;;9.14;89.41;97800.38;1755181;79;20969;-59
2022/09/16 05:48:59;;;;;;;3.50;1.42;;;;;;;9.30;89.73;97801.86;1771052;81;21016;-60
2022/09/16 05:51:27;;;;;;;9.83;1.73;;;;;;;9.47;89.87;97811.91;1764699;79;21545;-60
2022/09/16 05:53:54;;;;;;;;;;;;;;;9.69;89.95;97802.48;1784068;79;20990;-60
2022/09/16 05:56:28;;;;;;;;;;;;;;;9.87;89.81;97811.55;1773697;79;21363;-59
2022/09/16 05:58:54;;;;;;;7.45;1.50;;;;;;;9.95;89.67;97799.26;1778646;79;20234;-61
2022/09/16 06:01:24;;;;;;;6.72;1.27;;;;;;;9.98;89.42;97799.84;1761698;81;21073;-60
2022/09/16 06:03:52;;;;;;;8.93;1.50;;;;;;;10.02;89.45;97818.20;1764914;81;21065;-61
2022/09/16 06:06:31;;;;;;;6.83;1.20;;;;;;;10.01;89.24;97813.13;1759505;80;21096;-60
2022/09/16 06:09:02;;;;;;;6.08;1.10;;;;;;;9.90;89.13;97811.33;1780799;79;21099;-60
2022/09/16 06:11:29;;;;;;;7.97;1.30;;;;;;;9.84;89.28;97811.78;1761181;80;21282;-60
2022/09/16 06:14:00;;;;;;;6.03;1.60;;;;;;;9.80;89.40;97806.42;1775416;79;20943;-60
2022/09/16 06:16:31;;;;;;;3.52;1.10;;;;;;;9.80;89.42;97797.30;1765827;79;21002;-60
2022/09/16 06:18:57;;;;;;;3.90;1.30;;;;;;;9.77;89.29;97794.93;1768796;79;20947;-59
2022/09/16 06:21:24;;;;;;;;;;;;;;;9.72;89.29;97784.02;1772931;79;21495;-60
2022/09/16 06:23:52;;;;;;;4.67;1.50;;;;;;;9.65;89.29;97794.07;1748988;81;20142;-60
2022/09/16 06:26:22;;;;;;;5.05;1.40;;;;;;;9.58;89.36;97783.28;1778612;80;21555;-60
2022/09/16 06:28:49;;;;;;;6.55;1.67;;;;;;;9.58;89.49;97791.10;1759927;79;20998;-60
2022/09/16 06:31:23;;;;;;;4.55;1.15;;;;;;;9.54;89.40;97777.92;1772381;79;21040;-61
2022/09/16 06:33:51;;;;;;;4.58;1.40;;;;;;;9.52;89.45;97776.37;1760489;81;21093;-59
2022/09/16 06:36:22;;;;;;;5.83;1.30;;;;;;;9.53;89.53;97776.28;1753029;81;20988;-60
2022/09/16 06:38:50;;;;;;;5.03;1.32;;;;;;;9.76;89.85;97777.64;1764414;80;21066;-60
2022/09/16 06:41:19;;;;;;;5.47;1.70;;;;;;;10.34;90.75;97786.30;1757836;79;21068;-60
2022/09/16 06:43:47;;;;;;;6.70;1.52;;;;;;;11.18;90.45;97778.81;1781593;79;20986;-60
2022/09/16 06:46:24;;;;;;;6.33;1.77;;;;;;;11.73;89.77;97776.89;1760857;79;21515;-58
2022/09/16 06:48:55;;;;;;;6.53;1.70;;;;;;;11.99;89.00;97780.48;1784058;79;20953;-60
2022/09/16 06:51:28;;;;;;;5.42;1.37;;;;;;;12.40;89.19;97782.67;1764371;79;20973;-61
2022/09/16 06:54:03;;;;;;;4.58;1.20;;;;;;;12.60;88.37;97793.56;1773126;79;20956;-60
2022/09/16 06:56:30;;;;;;;5.17;1.45;;;;;;;12.42;87.62;97787.30;1772599;79;21026;-60
2022/09/16 06:58:57;;;;;;;3.50;1.32;;;;;;;12.09;87.47;97795.73;1750458;81;21129;-60
2022/09/16 07:01:27;;;;;;;4.55;1.47;;;;;;;11.89;87.82;97800.51;1779753;79;24382;-60
2022/09/16 07:03:57;;;;;;;4.97;1.50;;;;;;;11.79;88.12;97797.33;1747825;81;21070;-60
2022/09/16 07:06:28;;;;;;;4.22;1.57;;;;;;;11.94;89.25;97797.04;1759951;79;21018;-60
2022/09/16 07:08:55;;;;;;;6.67;1.82;;;;;;;12.29;89.05;97800.14;1760537;80;21367;-60
2022/09/16 07:11:23;;;;;;;3.83;1.22;;;;;;;12.37;88.28;97803.39;1786165;78;21029;-60
2022/09/16 07:13:51;;;;;;;4.47;1.25;;;;;;;12.41;88.71;97806.59;1775677;79;21564;-60
2022/09/16 07:16:23;;;;;;;3.95;1.15;;;;;;;12.44;88.08;97792.77;1765916;80;21254;-60
2022/09/16 07:18:55;;;;;;;5.30;1.40;;;;;;;12.08;87.40;97794.91;1765542;79;21092;-60
2022/09/16 07:21:31;;;;;;;3.25;0.90;;;;;;;11.83;87.38;97798.72;1780936;79;21080;-60
2022/09/16 07:24:02;;;;;;;4.97;1.90;;;;;;;11.70;87.59;97803.30;1774017;79;21633;-60
2022/09/16 07:26:32;;;;;;;4.03;1.20;;;;;;;11.61;87.81;97801.45;1745860;81;21500;-60
2022/09/16 07:29:03;;;;;;;6.67;2.05;;;;;;;11.79;88.58;97786.87;1779152;79;20998;-60
2022/09/16 07:31:35;;;;;;;6.83;1.65;;;;;;;12.16;88.87;97808.66;1760880;80;21028;-59
2022/09/16 07:34:04;;;;;;;5.67;2.12;;;;;;;12.36;87.81;97812.70;1754231;80;21036;-60
2022/09/16 07:36:39;;;;;;;10.70;2.12;;;;;;;12.16;87.00;97817.00;1746997;81;21081;-60
2022/09/16 07:39:06;;;;;;;4.67;1.40;;;;;;;11.84;86.61;97823.08;1780951;79;20954;-60
2022/09/16 07:41:37;;;;;;;6.83;1.30;;;;;;;11.59;86.87;97813.80;1759998;80;20954;-60
2022/09/16 07:44:06;;;;;;;2.58;1.07;;;;;;;11.27;86.81;97817.25;1759074;80;21029;-60
2022/09/16 07:46:34;;;;;;;4.25;1.17;;;;;;;11.12;87.22;97823.72;1767530;79;20977;-60
2022/09/16 07:49:04;;;;;;;5.72;1.57;;;;;;;11.04;87.42;97820.88;1781514;79;21993;-60
2022/09/16 07:51:32;;;;;;;3.72;1.32;;;;;;;11.05;87.43;97827.75;1764178;80;20996;-60
2022/09/16 07:54:06;;;;;;;7.47;1.25;;;;;;;11.10;87.45;97824.31;1762919;80;21046;-60
2022/09/16 07:56:37;;;;;;;3.77;1.30;;;;;;;10.95;87.15;97810.66;1768525;79;21055;-61
2022/09/16 07:59:07;;;;;;;3.65;1.27;;;;;;;10.95;87.15;97810.66;1788576;79;20965;-60
2022/09/16 08:01:34;;;;;;;5.65;1.30;;;;;;;10.89;86.87;97827.64;1762296;80;21099;-59
2022/09/16 08:04:03;;;;;;;3.58;1.10;;;;;;;10.74;86.96;97824.95;1753198;79;21014;-60
2022/09/16 08:06:32;;;;;;;6.37;1.37;;;;;;;10.69;86.74;97821.86;1751456;79;21040;-60
2022/09/16 08:09:01;;;;;;;4.90;1.00;;;;;;;10.56;86.46;97818.53;1749972;80;21005;-60
2022/09/16 08:11:31;;;;;;;6.10;1.77;;;;;;;10.38;86.79;97824.22;1763872;79;21260;-60
2022/09/16 08:14:00;;;;;;;4.25;1.30;;;;;;;10.38;86.78;97825.53;1763014;79;21958;-59
2022/09/16 08:16:27;;;;;;;5.95;1.52;;;;;;;10.35;86.97;97821.85;1767426;79;21026;-60
2022/09/16 08:18:57;;;;;;;6.60;1.45;;;;;;;10.32;87.06;97823.88;1776182;79;20961;-59
2022/09/16 08:21:27;;;;;;;5.35;1.47;;;;;;;10.23;87.27;97812.34;1752772;81;22116;-59
2022/09/16 08:23:55;;;;;;;7.72;2.70;;;;;;;10.32;87.09;97816.88;1780387;79;20981;-59
2022/09/16 08:26:23;;;;;;;5.95;1.27;;;;;;;10.37;86.97;97806.92;1774110;79;21515;-60
2022/09/16 08:28:51;;;;;;;4.87;1.40;;;;;;;10.40;87.03;97805.37;1772700;79;21078;-60
2022/09/16 08:31:19;;;;;;;6.05;1.52;;;;;;;10.37;87.03;97810.84;1727894;81;21004;-59
2022/09/16 08:33:47;;;;;;;6.10;1.20;;;;;;;10.28;87.52;97812.86;1760891;79;20950;-59
2022/09/16 08:36:19;;;;;;;4.42;1.40;;;;;;;10.38;87.89;97798.14;1769285;80;20981;-58
2022/09/16 08:38:48;;;;;;;6.08;1.92;;;;;;;10.55;88.08;97806.45;1758158;79;21782;-59
2022/09/16 08:41:45;;;;;;;5.65;1.52;;;;;;;10.85;88.41;97811.88;1742521;81;21044;-59
2022/09/16 08:44:47;;;;;;;6.10;1.40;;;;;;;11.11;88.10;97808.98;1757047;80;20999;-58
2022/09/16 08:47:41;;;;;;;5.58;1.25;;;;;;;11.18;87.70;97808.38;1754475;80;21001;-60
2022/09/16 08:50:13;;;;;;;6.62;1.50;;;;;;;11.31;87.74;97800.36;1759010;80;21140;-60
2022/09/16 08:52:43;;;;;;;4.85;1.20;;;;;;;11.46;87.96;97803.54;1750809;80;21177;-60
2022/09/16 08:55:30;;;;;;;3.62;1.25;;;;;;;11.69;88.05;97814.72;1757062;80;21937;-60
2022/09/16 08:58:00;;;;;;;;;;;;;;;11.95;87.96;97817.81;1765362;80;21112;-60
2022/09/16 09:00:27;;;;;;;5.30;1.35;;;;;;;12.06;87.56;97819.55;1758223;80;20157;-61
2022/09/16 09:03:19;;;;;;;5.72;1.60;;;;;;;12.10;87.46;97820.96;1776691;79;21076;-60
2022/09/16 09:05:59;;;;;;;3.67;1.12;;;;;;;12.20;87.56;97821.83;1757801;79;21081;-59
2022/09/16 09:08:50;;;;;;;3.90;1.20;;;;;;;12.38;87.59;97815.99;1758912;79;21026;-59
2022/09/16 09:11:31;;;;;;;4.20;1.45;;;;;;;12.49;87.58;97817.21;1698333;83;21736;-59
2022/09/16 09:14:22;;;;;;;5.37;1.60;;;;;;;12.57;87.30;97820.49;1691424;83;21197;-59
2022/09/16 09:17:29;;;;;;;4.95;1.25;;;;;;;12.53;86.97;97812.08;1702931;83;21430;-59
2022/09/16 09:20:30;;;;;;;2.90;1.00;;;;;;;12.42;86.95;97813.48;1678309;83;21977;-60
2022/09/16 09:23:17;;;;;;;4.95;1.27;;;;;;;12.21;86.92;97822.20;1701819;83;21629;-59
2022/09/16 09:26:13;;;;;;;3.87;1.50;;;;;;;12.19;87.39;97820.18;1687227;83;21119;-59
2022/09/16 09:29:21;;;;;;;5.25;1.20;;;;;;;12.25;87.22;97822.27;1698847;82;21049;-59
2022/09/16 09:31:56;;;;;;;6.05;1.10;;;;;;;12.23;87.07;97820.26;1695101;82;21049;-59
2022/09/16 09:34:49;;;;;;;2.30;0.95;;;;;;;12.14;87.01;97826.27;1650872;84;21828;-59
2022/09/16 09:37:24;;;;;;;5.28;1.27;;;;;;;12.07;86.83;97826.42;1678448;83;21118;-60
2022/09/16 09:39:59;;;;;;;4.60;1.77;;;;;;;11.95;86.97;97824.84;1679288;83;21839;-60
2022/09/16 09:42:40;;;;;;;3.92;1.10;;;;;;;11.75;86.76;97835.13;1689589;83;21006;-59
2022/09/16 09:45:27;;;;;;;5.12;1.45;;;;;;;11.51;86.71;97816.20;1681729;83;21591;-60
2022/09/16 09:48:19;;;;;;;9.58;1.50;;;;;;;11.51;86.71;97816.20;1751681;80;21496;-60
2022/09/16 09:50:49;;;;;;;6.03;1.87;;;;;;;11.55;86.62;97841.98;1736281;81;21072;-60
2022/09/16 09:53:33;;;;;;;4.22;1.00;;;;;;;11.45;86.80;97840.23;1760867;81;20950;-59
2022/09/16 09:56:12;;;;;;;6.08;1.67;;;;;;;11.45;86.93;97835.00;1742330;80;21564;-59
2022/09/16 09:58:50;;;;;;;2.92;1.30;;;;;;;11.52;87.16;97827.86;1738731;81;20959;-60
2022/09/16 10:01:17;;;;;;;6.17;1.72;;;;;;;11.69;86.53;97831.71;1742783;81;21599;-60
2022/09/16 10:03:44;;;;;;;8.95;1.67;;;;;;;11.74;87.05;97831.34;1762310;80;21525;-60
2022/09/16 10:06:12;;;;;;;7.15;1.72;;;;;;;11.94;87.11;97806.19;1747871;81;21034;-60
2022/09/16 10:08:47;;;;;;;5.42;1.45;;;;;;;11.94;87.11;97806.19;1746928;80;21100;-60
2022/09/16 10:11:22;;;;;;;7.15;1.72;;;;;;;12.25;87.28;97827.50;1750858;80;20959;-61
2022/09/16 10:13:54;;;;;;;4.12;1.62;;;;;;;12.37;87.03;97827.43;1765858;79;21076;-59
2022/09/16 10:16:25;;;;;;;5.42;1.32;;;;;;;12.46;86.64;97830.56;1747928;80;21032;-59
2022/09/16 10:19:28;;;;;;;8.05;1.37;;;;;;;12.51;86.68;97832.31;1738823;81;21038;-60
2022/09/16 10:25:08;;;;;;;7.45;1.75;;;;;;;12.81;86.46;97820.19;1835097;76;22446;-60
2022/09/16 10:27:38;;;;;;;5.97;1.52;;;;;;;12.78;86.44;97823.07;1769236;80;21034;-61
2022/09/16 10:30:25;;;;;;;4.03;1.70;;;;;;;12.75;86.25;97839.88;1754034;79;21079;-61
2022/09/16 10:33:00;;;;;;;6.22;1.22;;;;;;;12.66;86.18;97833.64;1668270;83;21161;-61
2022/09/16 10:35:31;;;;;;;8.78;1.57;;;;;;;12.64;86.31;97839.48;1699376;83;21717;-61
2022/09/16 10:38:12;;;;;;;6.05;1.40;;;;;;;12.65;86.39;97834.58;1665434;84;20980;-61
2022/09/16 10:40:52;;;;;;;4.97;1.07;;;;;;;12.79;86.65;97841.73;1666151;85;20992;-61
2022/09/16 10:43:20;;;;;;;6.33;1.62;;;;;;;13.04;86.92;97834.72;1661752;84;21089;-60
2022/09/16 10:45:51;;;;;;;7.75;2.02;;;;;;;13.28;86.57;97838.81;1671780;84;22268;-61
2022/09/16 10:48:22;;;;;;;7.00;1.50;;;;;;;13.30;86.13;97839.48;1645355;86;21038;-60
2022/09/16 10:51:02;;;;;;;3.77;1.17;;;;;;;13.35;85.94;97837.29;1669299;84;21571;-60
2022/09/16 10:53:34;;;;;;;3.25;1.00;;;;;;;13.39;86.05;97841.31;1700543;83;21593;-60
2022/09/16 10:56:18;;;;;;;6.03;1.27;;;;;;;13.50;85.93;97829.84;1696303;83;21526;-60
2022/09/16 10:58:45;;;;;;;4.22;1.27;;;;;;;13.56;85.70;97837.19;1703062;83;21016;-60
2022/09/16 11:01:37;;;;;;;3.92;1.10;;;;;;;13.63;85.24;97841.73;1701941;83;21014;-59
2022/09/16 11:04:09;;;;;;;4.58;1.45;;;;;;;13.58;85.32;97854.45;1713177;83;21038;-60
2022/09/16 11:06:52;;;;;;;4.78;1.12;;;;;;;13.53;85.26;97861.89;1716431;83;20981;-60
2022/09/16 11:09:50;;;;;;;4.85;1.27;;;;;;;13.43;84.82;97862.34;1707538;83;21292;-59
2022/09/16 11:13:14;;;;;;;4.47;1.37;;;;;;;13.18;84.50;97860.53;1699087;83;20961;-59
2022/09/16 11:16:10;;;;;;;1.82;0.70;;;;;;;12.90;84.17;97877.00;1707199;83;21512;-60
2022/09/16 11:19:09;;;;;;;1.25;0.42;;;;;;;12.22;82.89;97895.80;1676321;83;21493;-60
2022/09/16 11:22:24;;;;;;;0.98;0.30;;;;;;;11.58;83.30;97910.17;1708907;82;20968;-59
2022/09/16 11:25:34;;;;;;;0.85;0.50;;;;;;;11.10;83.82;97901.36;1714857;82;21177;-60
2022/09/16 11:28:34;;;;;;;1.22;0.53;;;;;;;10.88;84.44;97918.69;1712318;82;21016;-61
2022/09/16 11:31:24;;;;;;;0.50;0.20;;;;;;;10.47;84.75;97920.53;1716504;83;21582;-59
2022/09/16 11:34:07;;;;;;;1.00;0.30;;;;;;;10.33;84.72;97907.22;1680642;84;21474;-60
2022/09/16 11:37:09;;;;;;;1.17;0.40;;;;;;;10.32;84.76;97908.17;1688427;84;21458;-60
2022/09/16 11:40:09;;;;;;;0.45;0.30;;;;;;;10.29;85.04;97900.58;1682233;85;21071;-60
2022/09/16 11:43:05;;;;;;;1.35;0.20;;;;;;;10.60;85.63;97894.35;1678916;85;21625;-60
2022/09/16 11:47:10;;;;;;;0.37;0.20;;;;;;;11.41;85.99;97884.91;1828892;76;22785;-60
2022/09/16 11:50:18;;;;;;;0.50;0.40;;;;;;;11.69;85.39;97885.30;1814313;78;21006;-60
2022/09/16 11:53:08;;;;;;;2.05;0.35;;;;;;;11.90;85.01;97883.23;1784203;78;22446;-60
2022/09/16 11:55:57;;;;;;;1.70;0.50;;;;;;;12.02;84.86;97877.00;1813768;78;20988;-60
2022/09/16 11:58:46;;;;;;;2.37;0.57;;;;;;;12.13;85.11;97875.64;1813418;78;20963;-60
2022/09/16 12:01:18;;;;;;;1.32;0.60;;;;;;;12.32;85.59;97874.91;1813261;78;20907;-60
2022/09/16 12:04:11;;;;;;;2.15;0.70;;;;;;;12.72;86.16;97868.45;1815949;78;21049;-62
2022/09/16 12:06:52;;;;;;;3.20;0.80;;;;;;;13.17;86.37;97861.51;1812108;78;21133;-61
2022/09/16 12:09:25;;;;;;;8.53;0.98;;;;;;;13.56;86.01;97858.17;1812132;78;20937;-61
2022/09/16 12:11:57;;;;;;;1.35;0.60;;;;;;;13.82;85.53;97866.31;1732728;81;21053;-61
2022/09/16 12:14:35;;;;;;;5.05;1.05;;;;;;;13.91;85.37;97862.85;1744715;81;21005;-61
2022/09/16 12:17:19;;;;;;;3.10;0.90;;;;;;;13.98;85.34;97858.72;1739850;81;21017;-60
2022/09/16 12:20:06;;;;;;;3.75;1.30;;;;;;;14.08;85.36;97859.52;1734934;80;21001;-60
2022/09/16 12:22:47;;;;;;;1.80;0.95;;;;;;;14.18;85.33;97857.38;1738450;80;21079;-61
2022/09/16 12:25:48;;;;;;;3.85;1.22;;;;;;;14.32;85.30;97853.83;1734395;81;20937;-60
2022/09/16 12:28:35;;;;;;;4.10;1.37;;;;;;;14.32;85.19;97863.50;1710499;82;21131;-58